Welcome to Northern Hawkes Bay. New Zealand.
PWS Header
      nz Flag



Hit Counter


W3C Valid W3C Valid logo


    Wairoa

Select any of the Stations below to visit their websites.










Historic Data from Weather Underground
Select the location of interest below. Wairoa is the default. Please have patience, this Data is slow to load in.
Northern Hawkes Bay Historical Data
Daily Summary for June 21, 2017 Units:  English    Metric   Both
« Previous Day
Next Day »
Daily Weekly Monthly Yearly Custom
  High: Low: Average:
Temperature: 64.9 °F 34.9 °F 47.3 °F
Dew Point: 50 °F 34.3 °F 42.6 °F
Humidity: 99% 51% 86%
Wind Speed: 9.8mph 0mph 2.5mph
Wind Gust: 13.6mph - -
Wind- - South
Pressure: 30.5 in 30.2 in -
Precipitation: 0 in    
Historical Graphs
 
 
Tabular Data for June 21, 2017
Time Temperature Dew Point Pressure Wind Wind Speed Wind Gust Humidity Rainfall Rate (Hourly) solar
00:01 40.1 °F 39.7 °F 30.5 in North 1.6 mph 3.1 mph 99% 0 in 0 W/m2
00:06 39.9 °F 39.7 °F 30.5 in North 1.6 mph 3.1 mph 99% 0 in 0 W/m2
00:11 39.9 °F 39.7 °F 30.5 in North 1.6 mph 3.1 mph 99% 0 in 0 W/m2
00:16 39.7 °F 39.6 °F 30.5 in North 1.6 mph 3.1 mph 99% 0 in 0 W/m2
00:21 39.7 °F 39.6 °F 30.5 in North 1.6 mph 3.1 mph 99% 0 in 0 W/m2
00:26 39.6 °F 39.4 °F 30.5 in North 0.7 mph 2.2 mph 99% 0 in 0 W/m2
00:31 39.4 °F 39 °F 30.5 in North 1.6 mph 2.2 mph 99% 0 in 0 W/m2
00:36 39.2 °F 38.8 °F 30.5 in North 1.6 mph 3.1 mph 99% 0 in 0 W/m2
00:41 39.2 °F 38.8 °F 30.5 in North 1.6 mph 3.1 mph 99% 0 in 0 W/m2
00:46 39.2 °F 38.8 °F 30.5 in North 2.2 mph 3.1 mph 99% 0 in 0 W/m2
00:51 39.2 °F 38.8 °F 30.5 in North 1.6 mph 3.8 mph 99% 0 in 0 W/m2
00:56 39 °F 38.8 °F 30.4 in North 1.6 mph 3.8 mph 99% 0 in 0 W/m2
01:01 39 °F 38.8 °F 30.5 in NNW 1.6 mph 3.1 mph 99% 0 in 0 W/m2
01:06 38.8 °F 38.7 °F 30.4 in NNW 0.7 mph 3.1 mph 99% 0 in 0 W/m2
01:11 38.8 °F 38.7 °F 30.4 in NNW 2.2 mph 3.1 mph 99% 0 in 0 W/m2
01:16 38.7 °F 38.5 °F 30.4 in NNW 1.6 mph 3.1 mph 99% 0 in 0 W/m2
01:21 38.5 °F 38.1 °F 30.5 in North 2.2 mph 3.1 mph 99% 0 in 0 W/m2
01:26 38.5 °F 38.1 °F 30.5 in North 1.6 mph 3.8 mph 99% 0 in 0 W/m2
01:31 38.5 °F 38.1 °F 30.4 in NNW 1.6 mph 3.8 mph 99% 0 in 0 W/m2
01:36 38.3 °F 37.9 °F 30.4 in NNW 1.6 mph 3.1 mph 99% 0 in 0 W/m2
01:41 38.3 °F 37.9 °F 30.4 in NNW 2.2 mph 3.8 mph 99% 0 in 0 W/m2
01:46 38.1 °F 37.9 °F 30.4 in NNW 2.2 mph 4.5 mph 99% 0 in 0 W/m2
01:52 37.9 °F 37.8 °F 30.4 in NNW 3.1 mph 5.4 mph 99% 0 in 0 W/m2
01:57 37.8 °F 37.6 °F 30.5 in North 3.1 mph 5.4 mph 99% 0 in 0 W/m2
02:02 37.8 °F 37.6 °F 30.4 in NNW 3.1 mph 4.5 mph 99% 0 in 0 W/m2
02:07 37.8 °F 37.6 °F 30.5 in NW 3.1 mph 4.5 mph 99% 0 in 0 W/m2
02:12 37.8 °F 37.6 °F 30.5 in NW 3.1 mph 4.5 mph 99% 0 in 0 W/m2
02:17 37.8 °F 37.6 °F 30.4 in NNW 2.2 mph 4.5 mph 99% 0 in 0 W/m2
02:22 37.6 °F 37.2 °F 30.5 in NNW 2.2 mph 5.4 mph 99% 0 in 0 W/m2
02:27 37.2 °F 36.5 °F 30.4 in NNW 1.6 mph 5.4 mph 97% 0 in 0 W/m2
02:32 37.2 °F 36.5 °F 30.4 in NNW 1.6 mph 3.8 mph 97% 0 in 0 W/m2
02:37 37.2 °F 36.5 °F 30.4 in NNW 3.1 mph 3.8 mph 97% 0 in 0 W/m2
02:42 37.2 °F 36.5 °F 30.4 in NNW 1.6 mph 3.8 mph 97% 0 in 0 W/m2
02:47 37.2 °F 36.5 °F 30.4 in NW 3.1 mph 4.5 mph 97% 0 in 0 W/m2
02:52 37.2 °F 36.5 °F 30.4 in NNW 2.2 mph 4.5 mph 97% 0 in 0 W/m2
02:57 37 °F 36.3 °F 30.4 in NNW 3.1 mph 3.8 mph 97% 0 in 0 W/m2
03:02 37 °F 36.3 °F 30.4 in NNW 0.7 mph 3.8 mph 97% 0 in 0 W/m2
03:07 37 °F 36.3 °F 30.4 in North 1.6 mph 3.8 mph 97% 0 in 0 W/m2
03:12 37 °F 36.3 °F 30.4 in NNW 0.7 mph 3.8 mph 97% 0 in 0 W/m2
03:17 37 °F 36.3 °F 30.4 in NNW 1.6 mph 4.5 mph 97% 0 in 0 W/m2
03:22 37 °F 36.3 °F 30.4 in NNW 1.6 mph 4.5 mph 97% 0 in 0 W/m2
03:27 37.2 °F 36.5 °F 30.4 in NNW 0.7 mph 3.8 mph 97% 0 in 0 W/m2
03:32 37.2 °F 36.5 °F 30.4 in NNW 2.2 mph 3.8 mph 97% 0 in 0 W/m2
03:37 37.2 °F 36.5 °F 30.4 in NNW 2.2 mph 3.8 mph 97% 0 in 0 W/m2
03:42 37.2 °F 36.5 °F 30.4 in NNW 3.8 mph 4.5 mph 97% 0 in 0 W/m2
03:47 37.2 °F 36.5 °F 30.4 in NNW 3.8 mph 5.4 mph 97% 0 in 0 W/m2
03:52 37.2 °F 36.5 °F 30.4 in NNW 2.2 mph 5.4 mph 97% 0 in 0 W/m2
03:57 37.2 °F 36.5 °F 30.4 in North 2.2 mph 4.5 mph 97% 0 in 0 W/m2
04:02 37.2 °F 36.5 °F 30.4 in North 3.1 mph 6 mph 97% 0 in 0 W/m2
04:07 37.2 °F 36.5 °F 30.4 in NNW 1.6 mph 6 mph 97% 0 in 0 W/m2
04:12 37 °F 36.3 °F 30.4 in North 3.1 mph 5.4 mph 97% 0 in 0 W/m2
04:17 36.9 °F 36.1 °F 30.4 in NNW 2.2 mph 5.4 mph 97% 0 in 0 W/m2
04:22 36.7 °F 36 °F 30.4 in NNW 1.6 mph 3.8 mph 97% 0 in 0 W/m2
04:27 36.7 °F 36 °F 30.4 in North 0.7 mph 4.5 mph 97% 0 in 0 W/m2
04:32 36.5 °F 35.8 °F 30.4 in North 1.6 mph 4.5 mph 97% 0 in 0 W/m2
04:37 36.5 °F 35.8 °F 30.4 in NNW 1.6 mph 3.8 mph 97% 0 in 0 W/m2
04:42 36.5 °F 35.8 °F 30.4 in NNW 2.2 mph 4.5 mph 97% 0 in 0 W/m2
04:47 36.5 °F 35.8 °F 30.4 in North 1.6 mph 4.5 mph 97% 0 in 0 W/m2
04:52 36.3 °F 35.6 °F 30.4 in NNW 1.6 mph 3.1 mph 97% 0 in 0 W/m2
04:57 36.1 °F 35.4 °F 30.4 in North 1.6 mph 3.8 mph 97% 0 in 0 W/m2
05:02 36.1 °F 35.4 °F 30.4 in North 3.1 mph 4.5 mph 97% 0 in 0 W/m2
05:07 36 °F 35.2 °F 30.4 in NNW 2.2 mph 4.5 mph 97% 0 in 0 W/m2
05:12 36.1 °F 35.4 °F 30.4 in NNW 3.1 mph 5.4 mph 97% 0 in 0 W/m2
05:17 36.3 °F 35.6 °F 30.4 in NNW 2.2 mph 5.4 mph 97% 0 in 0 W/m2
05:22 36.3 °F 35.6 °F 30.4 in NNW 1.6 mph 6 mph 97% 0 in 0 W/m2
05:27 36.3 °F 35.6 °F 30.4 in NNW 1.6 mph 6 mph 97% 0 in 0 W/m2
05:32 36.3 °F 35.6 °F 30.4 in NNW 1.6 mph 5.4 mph 97% 0 in 0 W/m2
05:37 36.1 °F 35.4 °F 30.4 in North 0.7 mph 3.1 mph 97% 0 in 0 W/m2
05:42 36.1 °F 35.4 °F 30.4 in NNW 3.1 mph 3.8 mph 97% 0 in 0 W/m2
05:47 36 °F 35.2 °F 30.4 in NNW 2.2 mph 4.5 mph 97% 0 in 0 W/m2
05:48 35.8 °F 35.1 °F 30.4 in NNW 3.8 mph 4.5 mph 97% 0 in 0 W/m2
05:53 35.8 °F 35.1 °F 30.4 in NNW 1.6 mph 4.5 mph 97% 0 in 0 W/m2
05:58 35.6 °F 34.9 °F 30.4 in NNW 3.1 mph 4.5 mph 97% 0 in 0 W/m2
06:03 35.6 °F 34.9 °F 30.4 in NNW 2.2 mph 5.4 mph 97% 0.01 in 0 W/m2
06:08 35.6 °F 34.9 °F 30.4 in North 2.2 mph 5.4 mph 97% 0.01 in 0 W/m2
06:13 35.6 °F 34.9 °F 30.4 in NNW 2.2 mph 4.5 mph 97% 0.01 in 0 W/m2
06:18 35.4 °F 34.9 °F 30.4 in NW 1.6 mph 4.5 mph 98% 0.01 in 0 W/m2
06:23 35.2 °F 34.7 °F 30.4 in NNW 2.2 mph 3.8 mph 98% 0.01 in 0 W/m2
06:28 35.2 °F 34.7 °F 30.4 in NW 2.2 mph 4.5 mph 98% 0.01 in 0 W/m2
06:33 35.2 °F 34.7 °F 30.4 in NNW 2.2 mph 5.4 mph 98% 0.01 in 0 W/m2
06:38 35.2 °F 34.7 °F 30.4 in NNW 3.1 mph 5.4 mph 98% 0.01 in 0 W/m2
06:43 35.2 °F 34.7 °F 30.4 in NNW 2.2 mph 6 mph 98% 0.01 in 0 W/m2
06:48 35.2 °F 34.7 °F 30.4 in NNW 1.6 mph 6 mph 98% 0.01 in 0 W/m2
06:53 35.2 °F 34.7 °F 30.4 in NNW 2.2 mph 5.4 mph 98% 0.01 in 0 W/m2
06:58 35.4 °F 34.9 °F 30.4 in NNW 3.1 mph 5.4 mph 98% 0.01 in 0 W/m2
07:03 35.6 °F 34.9 °F 30.4 in NW 3.8 mph 6 mph 97% 0 in 0 W/m2
07:08 35.6 °F 34.9 °F 30.4 in NNW 3.1 mph 6 mph 97% 0 in 0 W/m2
07:13 35.6 °F 34.9 °F 30.4 in NNW 1.6 mph 5.4 mph 97% 0 in 0 W/m2
07:18 35.4 °F 34.9 °F 30.4 in NNW 3.8 mph 4.5 mph 98% 0 in 0 W/m2
07:23 35.2 °F 34.7 °F 30.4 in NNW 2.2 mph 5.4 mph 98% 0 in 0 W/m2
07:28 35.2 °F 34.7 °F 30.4 in NNW 2.2 mph 5.4 mph 98% 0 in 0 W/m2
07:33 35.2 °F 34.7 °F 30.4 in NNW 2.2 mph 4.5 mph 98% 0 in 1 W/m2
07:38 35.1 °F 34.5 °F 30.4 in NNW 3.1 mph 6 mph 98% 0 in 3 W/m2
07:43 34.9 °F 34.3 °F 30.4 in NNW 3.8 mph 6 mph 98% 0 in 11 W/m2
07:48 35.1 °F 34.5 °F 30.4 in NNW 3.1 mph 6 mph 98% 0 in 23 W/m2
07:53 35.2 °F 34.7 °F 30.4 in NNW 3.1 mph 5.4 mph 98% 0 in 27 W/m2
07:58 35.4 °F 34.9 °F 30.4 in NNW 2.2 mph 5.4 mph 98% 0 in 40 W/m2
08:03 35.8 °F 35.1 °F 30.4 in North 2.2 mph 4.5 mph 97% 0 in 56 W/m2
08:08 36.5 °F 35.8 °F 30.4 in North 0.7 mph 3.1 mph 97% 0 in 67 W/m2
08:13 37.4 °F 37 °F 30.4 in North 1.6 mph 3.1 mph 99% 0 in 83 W/m2
08:18 37.8 °F 37.6 °F 30.4 in North 2.2 mph 3.8 mph 99% 0 in 90 W/m2
08:23 37.9 °F 37.8 °F 30.4 in North 2.2 mph 4.5 mph 99% 0 in 100 W/m2
08:28 37.8 °F 37.6 °F 30.4 in NNW 3.1 mph 5.4 mph 99% 0 in 108 W/m2
08:33 37.9 °F 37.8 °F 30.4 in NNW 2.2 mph 5.4 mph 99% 0 in 118 W/m2
08:38 38.5 °F 38.1 °F 30.4 in NNW 6.9 mph 7.6 mph 99% 0 in 128 W/m2
08:43 38.7 °F 38.5 °F 30.4 in NNW 5.4 mph 7.6 mph 99% 0 in 138 W/m2
08:48 38.8 °F 38.7 °F 30.4 in NW 3.8 mph 8.3 mph 99% 0 in 146 W/m2
08:53 38.8 °F 38.7 °F 30.4 in NNW 5.4 mph 8.3 mph 99% 0 in 154 W/m2
08:58 39.2 °F 38.8 °F 30.4 in NNW 4.5 mph 8.3 mph 99% 0 in 160 W/m2
09:03 39.6 °F 39.4 °F 30.4 in NW 3.1 mph 7.6 mph 99% 0 in 166 W/m2
09:08 40.5 °F 40.3 °F 30.4 in NW 2.2 mph 6 mph 99% 0 in 174 W/m2
09:13 41.5 °F 41.4 °F 30.4 in NNW 3.1 mph 5.4 mph 99% 0 in 187 W/m2
09:18 42.1 °F 41.7 °F 30.4 in NNW 5.4 mph 6.9 mph 99% 0 in 200 W/m2
09:23 42.4 °F 42.3 °F 30.4 in NNW 2.2 mph 6.9 mph 99% 0 in 209 W/m2
09:28 43.2 °F 42.6 °F 30.4 in NNW 2.2 mph 6.9 mph 98% 0 in 216 W/m2
09:33 44.1 °F 43.5 °F 30.4 in NNW 3.8 mph 6 mph 98% 0 in 216 W/m2
09:38 45 °F 44.2 °F 30.4 in North 3.8 mph 6 mph 97% 0 in 218 W/m2
09:43 45.7 °F 45 °F 30.4 in NNW 3.1 mph 6 mph 97% 0 in 219 W/m2
09:48 46.6 °F 46.2 °F 30.4 in NNW 3.1 mph 6 mph 99% 0 in 192 W/m2
09:53 47.1 °F 46.9 °F 30.4 in North 3.8 mph 6 mph 99% 0 in 135 W/m2
09:58 47.5 °F 47.1 °F 30.4 in NNW 3.1 mph 6 mph 99% 0 in 93 W/m2
10:03 48.2 °F 47.8 °F 30.4 in NNW 1.6 mph 6 mph 99% 0 in 111 W/m2
10:08 48.9 °F 48.7 °F 30.4 in NNW 2.2 mph 5.4 mph 99% 0 in 111 W/m2
10:13 50 °F 49.6 °F 30.4 in North 1.6 mph 5.4 mph 99% 0 in 85 W/m2
10:18 50.7 °F 49.6 °F 30.4 in NNW 1.6 mph 4.5 mph 96% 0 in 72 W/m2
10:23 51.3 °F 49.3 °F 30.4 in NNW 3.8 mph 5.4 mph 93% 0 in 69 W/m2
10:28 51.4 °F 48.4 °F 30.4 in NNW 3.1 mph 5.4 mph 89% 0 in 67 W/m2
10:33 52.5 °F 48.6 °F 30.4 in North 1.6 mph 5.4 mph 86% 0 in 65 W/m2
10:38 54.5 °F 49.5 °F 30.4 in NNE 0.7 mph 3.8 mph 83% 0 in 62 W/m2
10:43 55.8 °F 50 °F 30.4 in North 0.7 mph 2.2 mph 81% 0 in 61 W/m2
10:48 56.3 °F 49.8 °F 30.4 in North 1.6 mph 3.1 mph 79% 0 in 59 W/m2
10:53 55.9 °F 48.6 °F 30.4 in NNW 3.8 mph 4.5 mph 76% 0 in 59 W/m2
10:58 54.7 °F 47.7 °F 30.4 in NNW 1.6 mph 6 mph 77% 0 in 58 W/m2
11:03 54.7 °F 48.4 °F 30.4 in NNW 4.5 mph 6 mph 79% 0 in 57 W/m2
11:08 54.9 °F 48 °F 30.4 in North 2.2 mph 6 mph 78% 0 in 57 W/m2
11:13 55.4 °F 48 °F 30.4 in North 3.8 mph 6.9 mph 76% 0 in 57 W/m2
11:18 56.5 °F 48.9 °F 30.4 in North 3.8 mph 6.9 mph 76% 0 in 57 W/m2
11:23 56.8 °F 48.7 °F 30.4 in North 3.8 mph 7.6 mph 74% 0 in 57 W/m2
11:28 56.5 °F 47.1 °F 30.4 in North 4.5 mph 8.3 mph 71% 0 in 56 W/m2
11:33 57.4 °F 48 °F 30.4 in North 3.8 mph 8.3 mph 71% 0 in 56 W/m2
11:37 58.1 °F 48.7 °F 30.4 in NNE 4.5 mph 7.6 mph 71% 0 in 55 W/m2
11:42 59.2 °F 48.6 °F 30.4 in NE 3.1 mph 6.9 mph 68% 0 in 55 W/m2
11:47 59.4 °F 48 °F 30.4 in NNE 3.8 mph 7.6 mph 66% 0 in 55 W/m2
11:52 59.2 °F 47.5 °F 30.4 in North 4.5 mph 9.8 mph 65% 0 in 54 W/m2
11:57 59.4 °F 48 °F 30.4 in NNE 3.1 mph 9.8 mph 66% 0 in 53 W/m2
12:02 59.9 °F 47.7 °F 30.4 in NNE 5.4 mph 8.3 mph 64% 0 in 53 W/m2
12:06 60.1 °F 47.8 °F 30.4 in NNE 3.8 mph 8.3 mph 64% 0 in 53 W/m2
12:11 61.2 °F 48.6 °F 30.4 in NE 5.4 mph 8.3 mph 63% 0 in 52 W/m2
12:16 61.7 °F 48.6 °F 30.4 in NE 3.8 mph 7.6 mph 62% 0 in 53 W/m2
12:35 62.6 °F 47.1 °F 30.3 in NNE 7.6 mph 9.2 mph 57% 0 in 54 W/m2
12:40 62.1 °F 47.1 °F 30.3 in North 4.5 mph 9.8 mph 58% 0 in 54 W/m2
12:45 63 °F 46.9 °F 30.3 in NNE 3.1 mph 9.8 mph 56% 0 in 56 W/m2
12:50 62.8 °F 46.4 °F 30.3 in NE 3.1 mph 7.6 mph 55% 0 in 56 W/m2
12:55 62.2 °F 46.4 °F 30.3 in NE 6.9 mph 10.7 mph 56% 0 in 57 W/m2
13:00 62.2 °F 46.8 °F 30.3 in NE 2.2 mph 10.7 mph 57% 0 in 57 W/m2
13:05 63.5 °F 47.5 °F 30.3 in NE 3.1 mph 8.3 mph 56% 0 in 59 W/m2
13:10 63 °F 46 °F 30.3 in ENE 5.4 mph 9.2 mph 54% 0 in 59 W/m2
13:15 62.6 °F 45.1 °F 30.3 in NE 6 mph 9.2 mph 53% 0 in 60 W/m2
13:20 62.2 °F 45.3 °F 30.3 in NE 9.2 mph 12.1 mph 54% 0 in 62 W/m2
13:25 62.1 °F 45.1 °F 30.3 in NE 6.9 mph 13.6 mph 54% 0 in 65 W/m2
13:30 62.2 °F 45 °F 30.3 in NE 3.8 mph 13.6 mph 53% 0 in 66 W/m2
13:35 63.1 °F 45.1 °F 30.3 in NE 4.5 mph 9.8 mph 52% 0 in 68 W/m2
13:40 63.5 °F 45.7 °F 30.3 in ENE 2.2 mph 8.3 mph 52% 0 in 70 W/m2
13:45 63.7 °F 45.7 °F 30.3 in NE 4.5 mph 9.2 mph 52% 0 in 76 W/m2
13:50 63.5 °F 45.1 °F 30.3 in NE 6 mph 9.8 mph 51% 0 in 106 W/m2
13:55 62.6 °F 44.2 °F 30.3 in NE 5.4 mph 11.4 mph 51% 0 in 178 W/m2
14:00 63 °F 44.6 °F 30.3 in NE 6.9 mph 11.4 mph 51% 0 in 244 W/m2
14:05 63.1 °F 44.8 °F 30.3 in NE 6.9 mph 11.4 mph 51% 0 in 253 W/m2
14:10 63.1 °F 45.1 °F 30.3 in NE 4.5 mph 9.8 mph 52% 0 in 255 W/m2
14:15 63.7 °F 45.7 °F 30.3 in NE 1.6 mph 13 mph 52% 0 in 253 W/m2
14:20 64 °F 46 °F 30.3 in NE 3.8 mph 13 mph 52% 0 in 249 W/m2
14:25 64.4 °F 46.4 °F 30.3 in NE 3.8 mph 6.9 mph 52% 0 in 246 W/m2
14:30 64.9 °F 46.9 °F 30.3 in NNE 2.2 mph 6.9 mph 52% 0 in 228 W/m2
14:35 64.4 °F 45.9 °F 30.3 in NNE 3.1 mph 6.9 mph 51% 0 in 164 W/m2
14:40 63.3 °F 45.9 °F 30.3 in NNE 4.5 mph 6.9 mph 53% 0 in 180 W/m2
14:45 62.8 °F 46.4 °F 30.3 in NNE 1.6 mph 6 mph 55% 0 in 174 W/m2
14:50 62.8 °F 46.9 °F 30.3 in North 6 mph 8.3 mph 56% 0 in 178 W/m2
14:55 62.6 °F 47.1 °F 30.3 in NNE 3.1 mph 8.3 mph 57% 0 in 176 W/m2
15:00 62.2 °F 46.8 °F 30.3 in NNE 5.4 mph 9.8 mph 57% 0 in 145 W/m2
15:05 62.1 °F 47.7 °F 30.3 in North 5.4 mph 9.8 mph 59% 0 in 152 W/m2
15:10 61.3 °F 46.9 °F 30.3 in North 4.5 mph 9.8 mph 59% 0 in 131 W/m2
15:16 61.5 °F 47.5 °F 30.3 in North 4.5 mph 9.8 mph 60% 0 in 141 W/m2
15:21 61.7 °F 47.1 °F 30.3 in NNW 4.5 mph 9.8 mph 59% 0 in 140 W/m2
15:26 62.2 °F 47.7 °F 30.3 in North 5.4 mph 7.6 mph 59% 0 in 131 W/m2
15:31 62.2 °F 47.7 °F 30.3 in North 1.6 mph 8.3 mph 59% 0 in 123 W/m2
15:36 63.1 °F 47.7 °F 30.3 in North 3.1 mph 8.3 mph 57% 0 in 114 W/m2
15:41 63.1 °F 47.1 °F 30.3 in NE 2.2 mph 5.4 mph 56% 0 in 105 W/m2
15:46 63.1 °F 47.1 °F 30.3 in NNE 2.2 mph 4.5 mph 56% 0 in 93 W/m2
15:51 63.1 °F 47.7 °F 30.3 in NE 1.6 mph 5.4 mph 57% 0 in 77 W/m2
15:56 63.1 °F 47.7 °F 30.3 in NNE 3.1 mph 5.4 mph 57% 0 in 72 W/m2
16:01 62.6 °F 47.1 °F 30.3 in NE 2.2 mph 4.5 mph 57% 0 in 57 W/m2
16:06 61.5 °F 47.5 °F 30.3 in NE 1.6 mph 4.5 mph 60% 0 in 35 W/m2
16:11 59.9 °F 47.3 °F 30.3 in NNE 2.2 mph 4.5 mph 63% 0 in 27 W/m2
16:16 58.8 °F 47.5 °F 30.3 in NNE 1.6 mph 5.4 mph 66% 0 in 20 W/m2
16:21 58.1 °F 47.1 °F 30.3 in NE 1.6 mph 5.4 mph 67% 0 in 18 W/m2
16:26 56.8 °F 47.1 °F 30.3 in NE 2.2 mph 3.8 mph 70% 0 in 16 W/m2
16:31 56.8 °F 47.8 °F 30.3 in NNE 1.6 mph 6.9 mph 72% 0 in 16 W/m2
16:36 57.2 °F 47.5 °F 30.3 in NNE 1.6 mph 6.9 mph 70% 0 in 7 W/m2
16:41 56.7 °F 47.7 °F 30.3 in NE 1.6 mph 3.1 mph 72% 0 in 4 W/m2
16:46 55.6 °F 47.5 °F 30.3 in NNE 1.6 mph 2.2 mph 74% 0 in 2 W/m2
16:51 55.2 °F 47.5 °F 30.3 in NNE 3.1 mph 3.8 mph 75% 0 in 0 W/m2
16:56 54.5 °F 47.1 °F 30.3 in NE 3.8 mph 6.9 mph 76% 0 in 0 W/m2
17:01 54.3 °F 47.3 °F 30.3 in NE 3.8 mph 6.9 mph 77% 0 in 0 W/m2
17:06 54 °F 47.3 °F 30.3 in NE 3.8 mph 5.4 mph 78% 0 in 0 W/m2
17:11 53.8 °F 47.5 °F 30.3 in NE 3.1 mph 4.5 mph 79% 0 in 0 W/m2
17:16 53.6 °F 47.7 °F 30.3 in ENE 2.2 mph 4.5 mph 80% 0 in 0 W/m2
17:21 53.2 °F 47.8 °F 30.3 in ENE 3.1 mph 4.5 mph 82% 0 in 0 W/m2
17:26 53.1 °F 47.7 °F 30.3 in ENE 2.2 mph 4.5 mph 82% 0 in 0 W/m2
17:31 52.9 °F 47.5 °F 30.3 in NE 3.8 mph 5.4 mph 82% 0 in 0 W/m2
17:36 53.1 °F 47.7 °F 30.3 in NE 1.6 mph 5.4 mph 82% 0 in 0 W/m2
17:40 53.1 °F 47.7 °F 30.3 in NE 3.8 mph 5.4 mph 82% 0 in 0 W/m2
17:45 52.9 °F 47.5 °F 30.3 in NE 4.5 mph 7.6 mph 82% 0 in 0 W/m2
17:50 53.1 °F 48 °F 30.3 in NE 2.2 mph 7.6 mph 83% 0 in 0 W/m2
17:55 53.2 °F 47.8 °F 30.3 in NNE 2.2 mph 7.6 mph 82% 0 in 0 W/m2
18:00 53.1 °F 47.7 °F 30.3 in NE 5.4 mph 6.9 mph 82% 0 in 0 W/m2
18:05 53.2 °F 47.8 °F 30.3 in NE 3.1 mph 9.2 mph 82% 0 in 0 W/m2
18:10 53.2 °F 47.8 °F 30.3 in NE 4.5 mph 9.2 mph 82% 0 in 0 W/m2
18:15 53.2 °F 47.8 °F 30.3 in NE 9.8 mph 12.1 mph 82% 0 in 0 W/m2
18:20 53.4 °F 48 °F 30.3 in NE 5.4 mph 12.1 mph 82% 0 in 0 W/m2
18:25 53.1 °F 47.5 °F 30.3 in NE 3.1 mph 12.1 mph 81% 0 in 0 W/m2
18:30 53.1 °F 47.5 °F 30.3 in ENE 3.8 mph 11.4 mph 81% 0 in 0 W/m2
18:35 53.1 °F 47.5 °F 30.3 in NE 4.5 mph 11.4 mph 81% 0 in 0 W/m2
18:40 53.1 °F 47.1 °F 30.3 in NNE 3.1 mph 9.8 mph 80% 0 in 0 W/m2
18:45 53.1 °F 47.1 °F 30.3 in NNE 2.2 mph 9.8 mph 80% 0 in 0 W/m2
18:50 52.9 °F 46.9 °F 30.3 in NNE 2.2 mph 6.9 mph 80% 0 in 0 W/m2
18:55 52.7 °F 46.8 °F 30.3 in NNE 2.2 mph 6.9 mph 80% 0 in 0 W/m2
19:00 52.5 °F 46.9 °F 30.3 in North 2.2 mph 5.4 mph 81% 0 in 0 W/m2
19:05 52.2 °F 46.6 °F 30.3 in NNE 3.1 mph 5.4 mph 81% 0 in 0 W/m2
19:10 51.8 °F 46.6 °F 30.3 in North 0.7 mph 4.5 mph 82% 0 in 0 W/m2
19:15 51.4 °F 46.6 °F 30.3 in North 2.2 mph 3.8 mph 83% 0 in 0 W/m2
19:20 51.4 °F 46.6 °F 30.3 in NNE 0.7 mph 6.9 mph 83% 0 in 0 W/m2
19:25 51.3 °F 46.2 °F 30.3 in NNE 1.6 mph 6.9 mph 83% 0 in 0 W/m2
19:30 50.9 °F 46.2 °F 30.3 in North 0.7 mph 3.1 mph 84% 0 in 0 W/m2
19:35 50.7 °F 46 °F 30.3 in North 0.7 mph 2.2 mph 84% 0 in 0 W/m2
19:40 50.5 °F 45.9 °F 30.3 in Calm   2.2 mph 84% 0 in 0 W/m2
19:45 50.4 °F 45.7 °F 30.3 in Calm   2.2 mph 84% 0 in 0 W/m2
19:50 49.8 °F 45.5 °F 30.3 in Calm   0.7 mph 85% 0 in 0 W/m2
19:55 49.3 °F 45 °F 30.3 in Calm   1.6 mph 85% 0 in 0 W/m2
20:00 48.9 °F 45 °F 30.3 in Calm   1.6 mph 86% 0 in 0 W/m2
20:05 48.7 °F 44.8 °F 30.3 in NE 0.7 mph 1.6 mph 86% 0 in 0 W/m2
20:10 48.7 °F 45 °F 30.3 in NE 0.7 mph 1.6 mph 87% 0 in 0 W/m2
20:15 48.6 °F 45.1 °F 30.3 in NE 0.7 mph 2.2 mph 88% 0 in 0 W/m2
20:20 48.6 °F 45.5 °F 30.3 in NE 0.7 mph 2.2 mph 89% 0 in 0 W/m2
20:25 48.4 °F 45.3 °F 30.3 in NE 1.6 mph 2.2 mph 89% 0 in 0 W/m2
20:30 47.8 °F 45.1 °F 30.3 in NE 0.7 mph 2.2 mph 90% 0 in 0 W/m2
20:35 47.5 °F 45 °F 30.3 in NE 1.6 mph 2.2 mph 91% 0 in 0 W/m2
20:40 47.5 °F 45 °F 30.3 in Calm   2.2 mph 91% 0 in 0 W/m2
20:45 47.1 °F 45 °F 30.3 in NNE 0.7 mph 2.2 mph 92% 0 in 0 W/m2
20:50 46.9 °F 44.8 °F 30.3 in North 0.7 mph 1.6 mph 92% 0 in 0 W/m2
20:55 46.8 °F 44.8 °F 30.3 in North 0.7 mph 2.2 mph 93% 0 in 0 W/m2
21:00 46.6 °F 44.8 °F 30.3 in North 1.6 mph 2.2 mph 93% 0 in 0 W/m2
21:05 46.8 °F 45.1 °F 30.3 in North 1.6 mph 3.1 mph 94% 0 in 0 W/m2
21:10 46.8 °F 45.3 °F 30.3 in North 1.6 mph 3.1 mph 95% 0 in 0 W/m2
21:16 46.8 °F 45.3 °F 30.3 in North 0.7 mph 3.8 mph 95% 0 in 0 W/m2
21:21 46.9 °F 45.7 °F 30.3 in North 1.6 mph 3.8 mph 95% 0 in 0 W/m2
21:26 47.1 °F 45.9 °F 30.3 in North 2.2 mph 3.1 mph 95% 0 in 0 W/m2
21:31 46.9 °F 45.7 °F 30.3 in NNE 0.7 mph 3.1 mph 95% 0 in 0 W/m2
21:36 47.3 °F 45.9 °F 30.3 in NNE 1.6 mph 3.1 mph 95% 0 in 0 W/m2
21:41 47.5 °F 46 °F 30.3 in NNE 1.6 mph 3.1 mph 95% 0 in 0 W/m2
21:46 48.2 °F 46.2 °F 30.3 in NNE 1.6 mph 3.8 mph 93% 0 in 0 W/m2
21:51 48 °F 46 °F 30.3 in NNE 1.6 mph 3.8 mph 93% 0 in 0 W/m2
21:56 47.8 °F 45.7 °F 30.3 in NNE 1.6 mph 3.1 mph 92% 0 in 0 W/m2
22:01 48.4 °F 45.9 °F 30.3 in NE 0.7 mph 3.1 mph 91% 0 in 0 W/m2
22:06 48.6 °F 46 °F 30.3 in NE 1.6 mph 2.2 mph 91% 0 in 0 W/m2
22:11 48.4 °F 45.7 °F 30.3 in NE 0.7 mph 2.2 mph 90% 0 in 0 W/m2
22:16 48 °F 45.5 °F 30.3 in Calm   3.1 mph 91% 0 in 0 W/m2
22:21 47.7 °F 45.1 °F 30.3 in Calm   3.1 mph 91% 0 in 0 W/m2
22:26 46.9 °F 44.2 °F 30.3 in NNW 0.7 mph 2.2 mph 90% 0 in 0 W/m2
22:31 46.8 °F 44.2 °F 30.3 in Calm   2.2 mph 91% 0 in 0 W/m2
22:36 46.6 °F 44.1 °F 30.3 in Calm   2.2 mph 91% 0 in 0 W/m2
22:41 46.4 °F 43.9 °F 30.3 in Calm   0.7 mph 91% 0 in 0 W/m2
22:47 45.7 °F 43.5 °F 30.3 in NE 0.7 mph 1.6 mph 92% 0 in 0 W/m2
22:52 45.3 °F 43.3 °F 30.3 in North 1.6 mph 3.1 mph 93% 0 in 0 W/m2
22:57 45.3 °F 43.3 °F 30.3 in NNE 1.6 mph 3.1 mph 93% 0 in 0 W/m2
23:02 45 °F 43.3 °F 30.3 in NNE 0.7 mph 3.8 mph 94% 0 in 0 W/m2
23:07 45 °F 43.5 °F 30.3 in NNE 0.7 mph 3.8 mph 95% 0 in 0 W/m2
23:12 45 °F 43.9 °F 30.3 in NNE 0.7 mph 3.1 mph 96% 0 in 0 W/m2
23:17 45 °F 43.9 °F 30.3 in NE 0.7 mph 3.1 mph 96% 0 in 0 W/m2
23:22 45.1 °F 44.2 °F 30.3 in NNE 0.7 mph 2.2 mph 97% 0 in 0 W/m2
23:27 45.3 °F 44.4 °F 30.3 in NE 0.7 mph 2.2 mph 97% 0 in 0 W/m2
23:32 45.7 °F 45 °F 30.3 in NE 0.7 mph 2.2 mph 97% 0 in 0 W/m2
23:37 45.9 °F 45.1 °F 30.3 in NNE 2.2 mph 3.1 mph 97% 0 in 0 W/m2
23:42 45.9 °F 45.1 °F 30.3 in North 1.6 mph 3.1 mph 97% 0 in 0 W/m2
23:47 46 °F 45.1 °F 30.3 in NNE 0.7 mph 3.1 mph 97% 0 in 0 W/m2
23:52 46.2 °F 45.3 °F 30.3 in NE 0.7 mph 3.1 mph 97% 0 in 0 W/m2
23:57 46.2 °F 45.1 °F 30.2 in NNE 0.7 mph 3.1 mph 96% 0 in 0 W/m2
Northern Hawkes Bay. New Zealand Historic Data
Compliments of Weather Underground - 2.25 mb